Terminal Aerodrome Forecast
Issued by NWS Pittsburgh, PA

Current Version | Previous Version | Graphics & Text | Print | Product List | Glossary On
Versions: 1 2 3 4 5 6 7 8 9 10 11 12 13 14 15 16 17 18 19 20 21 22 23 24 25 26 27 28 29 30 31 32 33 34 35 36 37
000
FTUS41 KPBZ 131100
TAFPIT
TAF
KPIT 131120Z 1312/1418 18008KT P6SM SCT070 BKN250
     FM131500 21015G25KT P6SM SCT070 BKN250
     FM132300 18010KT P6SM SCT050 BKN250
     FM141500 18015KT P6SM OVC100=

USA.gov is the U.S. government's official web portal to all federal, state and local government web resources and services.